KNTU

Oceana NAS / Apollo Soucek Field Airport

Virginia Beach, Virginia, USA
METAR KNTU 212156Z 08007KT 10SM SCT050 SCT100 BKN300 29/23 A2973 RMK AO2 SLP070 T2 SET T02890228
Observed Flight Rules
Jun-21 @ 21:56 UTC (11 minutes ago) Visual Flight Rules
Wind Visibility Clouds
80° at 7 knots 10 miles
  • Scattered at 5,000' AGL
  • Scattered at 10,000' AGL
  • Broken at 30,000' AGL
Temperatures Readings
Current 29°C / 84°F
Dewpoint 23°C / 73°F
Humidity 70%
Altimeter 29.73" Hg
Pressure 1007 hPa
Elevation 7
METAR KNTU 212156Z 08007KT 10SM SCT050 SCT100 BKN300 29/23 A2973 RMK AO2 SLP070 T2 SET T02890228
Observed Flight Rules
Jun-21 @ 21:56 UTC
(11 minutes ago)
VFR
Wind Visibility
80° at 7 knots 10 miles
Clouds
  • Scattered at 5,000' AGL
  • Scattered at 10,000' AGL
  • Broken at 30,000' AGL
Temperature Dewpoint
29°C / 84°F 23°C / 73°F
Humidity Altimeter Pressure
70% 29.73" Hg 1007 hPa